createdAt,value
2022-11-09T00:01:28.346Z,196.80
2022-11-09T00:03:57.574Z,204.47
2022-11-09T00:06:25.840Z,198.53
2022-11-09T00:08:53.594Z,195.37
2022-11-09T00:11:20.923Z,193.90
2022-11-09T00:13:48.933Z,206.93
2022-11-09T00:16:19.571Z,193.90
2022-11-09T00:18:49.662Z,194.20
2022-11-09T00:21:22.835Z,203.00
2022-11-09T00:23:51.041Z,189.33
2022-11-09T00:26:19.436Z,196.87
2022-11-09T00:28:46.355Z,201.63
2022-11-09T00:31:17.956Z,198.80
2022-11-09T00:33:50.503Z,199.57
2022-11-09T00:36:20.341Z,195.60
2022-11-09T00:38:56.868Z,209.77
2022-11-09T00:41:24.666Z,193.70
2022-11-09T00:43:52.225Z,199.60
2022-11-09T00:46:20.215Z,211.17
2022-11-09T00:48:50.068Z,202.20
2022-11-09T00:51:18.584Z,193.00
2022-11-09T00:53:48.332Z,205.73
2022-11-09T00:56:15.498Z,200.63
2022-11-09T00:58:42.424Z,201.63
2022-11-09T01:01:16.308Z,194.83
2022-11-09T01:03:45.149Z,202.63
2022-11-09T01:06:23.011Z,192.33
2022-11-09T01:08:51.115Z,193.77
2022-11-09T01:11:20.432Z,201.83
2022-11-09T01:13:47.742Z,193.40
2022-11-09T01:16:19.379Z,194.13
2022-11-09T01:18:46.971Z,201.30
2022-11-09T01:21:16.040Z,197.17
2022-11-09T01:23:43.813Z,197.03
2022-11-09T01:26:13.567Z,191.53
2022-11-09T01:28:41.149Z,197.00
2022-11-09T01:31:18.740Z,197.10
2022-11-09T01:33:45.941Z,193.17
2022-11-09T01:36:19.499Z,201.53
2022-11-09T01:38:47.254Z,194.00
2022-11-09T01:41:25.055Z,189.97
2022-11-09T01:44:07.364Z,200.33
2022-11-09T01:46:48.161Z,198.20
2022-11-09T01:49:43.416Z,209.90
2022-11-09T01:52:22.320Z,196.73
2022-11-09T01:54:53.911Z,194.47
2022-11-09T01:57:35.993Z,196.30
2022-11-09T02:00:09.991Z,199.33
2022-11-09T02:03:21.059Z,195.70
2022-11-09T02:05:49.698Z,196.20
2022-11-09T02:08:20.422Z,192.13
2022-11-09T02:11:09.416Z,197.80
2022-11-09T02:13:40.245Z,199.57
2022-11-09T02:16:12.882Z,193.50
2022-11-09T02:18:58.682Z,195.03
2022-11-09T02:21:28.750Z,201.63
2022-11-09T02:23:56.142Z,206.63
2022-11-09T02:26:32.084Z,191.50
2022-11-09T02:29:02.262Z,191.73
2022-11-09T02:31:35.299Z,195.23
2022-11-09T02:34:08.643Z,192.20
2022-11-09T02:36:35.576Z,191.27
2022-11-09T02:39:05.213Z,201.13
2022-11-09T02:41:36.001Z,192.40
2022-11-09T02:44:02.999Z,190.83
2022-11-09T02:46:36.749Z,192.63
2022-11-09T02:49:05.043Z,195.70
2022-11-09T02:51:32.098Z,193.17
2022-11-09T02:53:59.288Z,189.47
2022-11-09T02:56:26.860Z,197.50
2022-11-09T02:58:55.301Z,187.97
2022-11-09T03:01:22.596Z,192.93
2022-11-09T03:03:49.768Z,193.63
2022-11-09T03:06:16.833Z,201.03
2022-11-09T03:08:45.517Z,194.80
2022-11-09T03:11:14.101Z,193.37
2022-11-09T03:13:41.096Z,191.10
2022-11-09T03:16:09.678Z,199.97
2022-11-09T03:18:39.425Z,197.23
2022-11-09T03:21:07.109Z,198.20
2022-11-09T03:23:34.392Z,199.67
2022-11-09T03:26:02.691Z,205.37
2022-11-09T03:28:29.919Z,193.10
2022-11-09T03:30:57.696Z,203.63
2022-11-09T03:33:24.840Z,201.10
2022-11-09T03:35:51.747Z,195.80
2022-11-09T03:38:19.686Z,196.50
2022-11-09T03:40:47.756Z,197.80
2022-11-09T03:43:14.741Z,206.50
2022-11-09T03:45:41.992Z,194.63
2022-11-09T03:48:08.972Z,194.10
2022-11-09T03:50:40.481Z,201.13
2022-11-09T03:53:11.141Z,194.53
2022-11-09T03:55:39.373Z,194.97
2022-11-09T03:58:08.131Z,199.87
2022-11-09T04:00:36.173Z,199.17
2022-11-09T04:03:03.109Z,199.67
2022-11-09T04:05:30.117Z,193.30
2022-11-09T04:07:58.169Z,198.50
2022-11-09T04:10:26.572Z,195.27
2022-11-09T04:12:53.947Z,202.47
2022-11-09T04:15:21.427Z,198.50
2022-11-09T04:17:56.749Z,204.53
2022-11-09T04:20:24.551Z,197.90
2022-11-09T04:23:03.631Z,193.83
2022-11-09T04:25:36.320Z,203.20
2022-11-09T04:28:05.401Z,194.03
2022-11-09T04:30:35.891Z,200.90
2022-11-09T04:33:03.561Z,202.83
2022-11-09T04:35:32.931Z,196.63
2022-11-09T04:38:03.320Z,198.20
2022-11-09T04:40:33.244Z,199.43
2022-11-09T04:43:01.631Z,196.67
2022-11-09T04:45:28.838Z,192.67
2022-11-09T04:48:04.176Z,197.63
2022-11-09T04:50:31.713Z,197.33
2022-11-09T04:53:10.816Z,194.53
2022-11-09T04:55:38.591Z,192.77
2022-11-09T04:58:06.252Z,199.67
2022-11-09T05:00:34.008Z,197.20
2022-11-09T05:03:06.042Z,200.77
2022-11-09T05:05:34.782Z,198.23
2022-11-09T05:08:02.273Z,192.30
2022-11-09T05:10:29.407Z,201.17
2022-11-09T05:13:14.709Z,194.50
2022-11-09T05:15:41.995Z,192.20
2022-11-09T05:18:10.283Z,198.93
2022-11-09T05:20:37.488Z,212.33
2022-11-09T05:23:23.671Z,195.27
2022-11-09T05:25:50.815Z,197.57
2022-11-09T05:28:17.820Z,204.17
2022-11-09T05:30:44.852Z,194.93
2022-11-09T05:33:11.847Z,191.70
2022-11-09T05:35:38.737Z,191.57
2022-11-09T05:38:05.644Z,205.83
2022-11-09T05:40:33.534Z,199.20
2022-11-09T05:43:00.433Z,191.80
2022-11-09T05:45:43.903Z,189.63
2022-11-09T05:48:16.942Z,198.27
2022-11-09T05:50:44.517Z,188.70
2022-11-09T05:53:17.618Z,200.80
2022-11-09T05:55:44.665Z,204.90
2022-11-09T05:58:11.755Z,206.40
2022-11-09T06:00:38.828Z,198.10
2022-11-09T06:03:08.544Z,192.53
2022-11-09T06:05:38.203Z,206.43
2022-11-09T06:08:08.396Z,195.83
2022-11-09T06:10:35.593Z,197.47
2022-11-09T06:13:02.886Z,205.33
2022-11-09T06:15:30.169Z,196.37
2022-11-09T06:17:58.486Z,200.67
2022-11-09T06:20:27.357Z,196.87
2022-11-09T06:23:01.480Z,202.83
2022-11-09T06:25:32.172Z,204.07
2022-11-09T06:27:59.605Z,199.57
2022-11-09T06:30:26.606Z,204.13
2022-11-09T06:33:00.136Z,202.63
2022-11-09T06:35:27.199Z,194.67
2022-11-09T06:37:58.770Z,207.47
2022-11-09T06:40:26.152Z,203.73
2022-11-09T06:42:53.292Z,215.10
2022-11-09T06:45:20.248Z,254.10
2022-11-09T06:47:47.292Z,259.40
2022-11-09T06:50:14.749Z,239.63
2022-11-09T06:52:41.721Z,269.57
2022-11-09T06:55:09.463Z,273.70
2022-11-09T06:57:36.470Z,232.60
2022-11-09T07:00:05.746Z,232.60
2022-11-09T07:02:33.520Z,223.17
2022-11-09T07:05:00.440Z,222.57
2022-11-09T07:07:28.333Z,219.93
2022-11-09T07:09:55.977Z,215.30
2022-11-09T07:12:23.259Z,207.53
2022-11-09T07:14:50.268Z,204.87
2022-11-09T07:17:17.342Z,212.50
2022-11-09T07:19:44.355Z,207.27
2022-11-09T07:22:11.361Z,205.53
2022-11-09T07:24:38.519Z,208.33
2022-11-09T07:27:05.463Z,197.60
2022-11-09T07:29:32.473Z,248.43
2022-11-09T07:31:59.554Z,231.07
2022-11-09T07:34:26.508Z,218.47
2022-11-09T07:36:54.594Z,258.20
2022-11-09T07:39:21.564Z,199.77
2022-11-09T07:41:48.946Z,210.70
2022-11-09T07:44:18.414Z,214.53
2022-11-09T07:46:50.066Z,209.40
2022-11-09T07:49:18.019Z,207.17
2022-11-09T07:51:45.040Z,208.63
2022-11-09T07:54:12.583Z,211.37
2022-11-09T07:56:39.635Z,209.33
2022-11-09T07:59:07.010Z,223.87
2022-11-09T08:01:33.987Z,207.00
2022-11-09T08:04:01.357Z,201.47
2022-11-09T08:06:28.476Z,212.83
2022-11-09T08:08:56.143Z,209.30
2022-11-09T08:11:23.329Z,210.20
2022-11-09T08:14:29.400Z,219.13
2022-11-09T08:16:57.114Z,230.23
2022-11-09T08:19:24.136Z,232.37
2022-11-09T08:21:53.941Z,237.47
2022-11-09T08:24:20.936Z,246.33
2022-11-09T08:26:47.823Z,209.13
2022-11-09T08:29:15.895Z,222.87
2022-11-09T08:31:42.899Z,209.80
2022-11-09T08:34:16.580Z,219.70
2022-11-09T08:37:17.687Z,212.27
2022-11-09T08:40:04.043Z,209.53
2022-11-09T08:42:34.258Z,214.67
2022-11-09T08:45:20.112Z,207.43
2022-11-09T08:47:48.259Z,214.43
2022-11-09T08:50:24.131Z,213.03
2022-11-09T08:52:51.054Z,209.13
2022-11-09T08:58:04.554Z,218.00
2022-11-09T09:00:31.786Z,216.77
2022-11-09T09:03:05.456Z,219.67
2022-11-09T09:05:36.769Z,223.13
2022-11-09T09:08:09.253Z,211.57
2022-11-09T09:10:36.312Z,217.93
2022-11-09T09:13:59.636Z,221.60
2022-11-09T09:16:30.280Z,216.93
2022-11-09T09:19:17.320Z,218.53
2022-11-09T09:22:17.830Z,210.73
2022-11-09T09:25:25.410Z,204.93
2022-11-09T09:27:54.194Z,219.47
2022-11-09T09:31:01.918Z,217.97
2022-11-09T09:33:32.202Z,234.63
2022-11-09T09:35:59.686Z,255.87
2022-11-09T09:38:29.147Z,214.57
2022-11-09T09:41:35.205Z,219.80
2022-11-09T09:44:29.742Z,222.37
2022-11-09T09:47:19.441Z,217.00
2022-11-09T09:50:04.774Z,222.90
2022-11-09T09:53:17.552Z,224.97
2022-11-09T10:00:46.473Z,216.70
2022-11-09T10:03:20.325Z,224.97
2022-11-09T10:06:04.807Z,218.87
2022-11-09T10:08:49.472Z,222.50
2022-11-09T10:11:39.859Z,212.07
2022-11-09T10:14:59.690Z,225.60
2022-11-09T10:18:12.032Z,227.53
2022-11-09T10:21:36.678Z,225.87
2022-11-09T10:24:24.907Z,216.53
2022-11-09T10:26:55.709Z,212.03
2022-11-09T10:29:37.854Z,214.43
2022-11-09T10:32:14.600Z,214.30
2022-11-09T10:35:17.591Z,216.63
2022-11-09T10:37:50.785Z,215.27
2022-11-09T10:40:53.010Z,232.83
2022-11-09T10:43:41.639Z,218.70
2022-11-09T10:46:26.803Z,218.37
2022-11-09T10:49:20.935Z,218.77
2022-11-09T10:52:42.969Z,216.70
2022-11-09T10:55:36.710Z,217.40
2022-11-09T10:58:32.248Z,216.17
2022-11-09T11:01:23.566Z,216.10
2022-11-09T11:04:24.430Z,223.00
2022-11-09T11:07:21.849Z,218.20
2022-11-09T11:10:16.641Z,218.23
2022-11-09T11:13:01.932Z,218.83
2022-11-09T11:15:47.869Z,222.70
2022-11-09T11:18:36.236Z,216.97
2022-11-09T11:21:25.441Z,223.83
2022-11-09T11:24:21.097Z,222.13
2022-11-09T11:27:14.683Z,212.07
2022-11-09T11:30:28.869Z,222.03
2022-11-09T11:33:18.980Z,220.57
2022-11-09T11:36:43.155Z,217.23
2022-11-09T11:39:45.119Z,210.53
2022-11-09T11:42:48.530Z,216.60
2022-11-09T11:45:42.530Z,214.30
2022-11-09T11:48:46.230Z,222.50
2022-11-09T11:52:00.264Z,216.77
2022-11-09T11:55:22.792Z,217.47
2022-11-09T11:58:23.645Z,218.17
2022-11-09T12:01:51.837Z,219.97
2022-11-09T12:05:17.695Z,216.90
2022-11-09T12:08:20.263Z,225.80
2022-11-09T12:11:38.177Z,215.40
2022-11-09T12:14:46.799Z,217.03
2022-11-09T12:18:11.578Z,223.43
2022-11-09T12:21:18.167Z,222.27
2022-11-09T12:24:37.161Z,218.43
2022-11-09T12:28:17.977Z,218.83
2022-11-09T12:31:40.375Z,223.63
2022-11-09T12:34:58.000Z,216.43
2022-11-09T12:38:12.932Z,214.67
2022-11-09T12:41:09.155Z,220.30
2022-11-09T12:44:44.301Z,216.23
2022-11-09T12:47:40.742Z,217.97
2022-11-09T12:50:27.787Z,219.77
2022-11-09T12:53:14.070Z,217.53
2022-11-09T12:56:14.477Z,220.50
2022-11-09T12:59:34.371Z,214.77
2022-11-09T13:02:35.202Z,218.37
2022-11-09T13:05:35.450Z,217.13
2022-11-09T13:08:29.406Z,214.63
2022-11-09T13:11:26.683Z,214.43
2022-11-09T13:14:26.206Z,218.17
2022-11-09T13:17:26.171Z,213.00
2022-11-09T13:20:54.872Z,216.27
2022-11-09T13:23:59.984Z,218.57
2022-11-09T13:26:46.698Z,213.03
2022-11-09T13:29:41.373Z,219.37
2022-11-09T13:32:30.241Z,217.13
2022-11-09T13:35:40.718Z,213.73
2022-11-09T13:38:29.727Z,210.83
2022-11-09T13:41:30.783Z,222.83
2022-11-09T13:44:31.292Z,215.50
2022-11-09T13:47:34.175Z,212.27
2022-11-09T13:50:23.601Z,217.10
2022-11-09T13:53:36.816Z,222.27
2022-11-09T13:56:32.235Z,214.43
2022-11-09T13:59:34.299Z,218.13
2022-11-09T14:02:23.791Z,225.93
2022-11-09T14:05:29.895Z,221.27
2022-11-09T14:08:25.458Z,218.97
2022-11-09T14:11:49.148Z,225.40
2022-11-09T14:15:17.437Z,247.10
2022-11-09T14:18:40.392Z,216.17
2022-11-09T14:21:51.841Z,215.03
2022-11-09T14:24:38.521Z,229.40
2022-11-09T14:27:24.267Z,228.27
2022-11-09T14:30:23.649Z,215.80
2022-11-09T14:33:34.428Z,217.03
2022-11-09T14:36:20.287Z,215.53
2022-11-09T14:39:23.360Z,219.67
2022-11-09T14:42:12.871Z,213.73
2022-11-09T14:44:58.668Z,217.67
2022-11-09T14:47:48.317Z,227.73
2022-11-09T14:50:37.437Z,229.03
2022-11-09T14:53:38.459Z,225.30
2022-11-09T14:56:25.192Z,218.53
2022-11-09T14:59:31.992Z,221.90
2022-11-09T15:02:20.471Z,223.03
2022-11-09T15:05:07.812Z,218.57
2022-11-09T15:07:53.310Z,215.13
2022-11-09T15:10:38.880Z,224.87
2022-11-09T15:13:40.020Z,222.23
2022-11-09T15:16:31.649Z,214.40
2022-11-09T15:19:38.624Z,233.50
2022-11-09T15:27:34.087Z,234.27
2022-11-09T15:31:02.955Z,228.90
2022-11-09T15:34:55.068Z,230.20
2022-11-09T15:37:43.371Z,228.07
2022-11-09T15:41:12.659Z,232.77
2022-11-09T15:43:58.797Z,226.13
2022-11-09T15:46:49.770Z,230.30
2022-11-09T15:49:35.328Z,229.93
2022-11-09T15:52:20.831Z,227.83
2022-11-09T15:55:06.690Z,236.63
2022-11-09T15:57:55.104Z,220.37
2022-11-09T16:00:40.933Z,226.20
2022-11-09T16:03:26.649Z,214.70
2022-11-09T16:06:19.030Z,215.67
2022-11-09T16:09:04.555Z,215.90
2022-11-09T16:11:50.106Z,214.47
2022-11-09T16:14:35.847Z,224.67
2022-11-09T16:17:21.404Z,234.83
2022-11-09T16:20:07.562Z,281.90
2022-11-09T16:22:53.003Z,269.07
2022-11-09T16:25:38.855Z,258.73
2022-11-09T16:28:24.250Z,231.47
2022-11-09T16:31:12.452Z,218.70
2022-11-09T16:33:57.921Z,225.53
2022-11-09T16:36:49.702Z,224.50
2022-11-09T16:39:37.960Z,222.03
2022-11-09T16:42:23.589Z,212.70
2022-11-09T16:45:14.825Z,216.60
2022-11-09T16:48:04.704Z,213.50
2022-11-09T16:50:50.280Z,226.67
2022-11-09T16:53:35.571Z,222.20
2022-11-09T16:56:21.091Z,235.30
2022-11-09T16:59:06.385Z,139.80
2022-11-09T17:01:54.394Z,232.37
2022-11-09T17:04:39.916Z,224.63
2022-11-09T17:07:25.476Z,224.73
2022-11-09T17:10:12.103Z,228.23
2022-11-09T17:12:57.678Z,222.40
2022-11-09T17:15:50.281Z,229.20
2022-11-09T17:18:37.671Z,225.87
2022-11-09T17:21:25.879Z,230.03
2022-11-09T17:24:11.710Z,236.10
2022-11-09T17:26:57.051Z,228.93
2022-11-09T17:29:42.321Z,245.40
2022-11-09T17:32:28.307Z,272.47
2022-11-09T17:35:14.039Z,287.53
2022-11-09T17:37:59.523Z,260.63
2022-11-09T17:40:45.040Z,242.47
2022-11-09T17:43:32.660Z,256.97
2022-11-09T17:46:21.157Z,240.90
2022-11-09T17:49:39.445Z,229.40
2022-11-09T17:52:25.184Z,235.97
2022-11-09T17:55:10.805Z,235.33
2022-11-09T17:57:56.274Z,222.43
2022-11-09T18:00:41.718Z,220.83
2022-11-09T18:03:32.087Z,224.93
2022-11-09T18:06:23.641Z,235.97
2022-11-09T18:12:16.463Z,221.63
2022-11-09T18:15:02.212Z,221.40
2022-11-09T18:17:47.894Z,227.50
2022-11-09T18:20:33.662Z,231.17
2022-11-09T18:23:19.117Z,220.60
2022-11-09T18:26:07.198Z,233.67
2022-11-09T18:28:52.698Z,211.60
2022-11-09T18:31:38.140Z,235.87
2022-11-09T18:34:23.456Z,230.23
2022-11-09T18:37:08.803Z,219.17
2022-11-09T18:39:54.370Z,219.70
2022-11-09T18:42:40.230Z,217.53
2022-11-09T18:45:25.941Z,225.50
2022-11-09T18:48:11.385Z,217.97
2022-11-09T18:50:58.936Z,218.73
2022-11-09T18:53:46.733Z,221.03
2022-11-09T18:56:32.137Z,223.50
2022-11-09T18:59:17.478Z,221.17
2022-11-09T19:02:02.769Z,220.13
2022-11-09T19:04:48.388Z,224.27
2022-11-09T19:07:33.978Z,232.43
2022-11-09T19:10:20.337Z,239.87
2022-11-09T19:13:06.328Z,222.90
2022-11-09T19:15:55.664Z,227.83
2022-11-09T19:18:43.817Z,232.50
2022-11-09T19:21:41.810Z,228.03
2022-11-09T19:24:28.667Z,226.63
2022-11-09T19:27:14.276Z,226.53
2022-11-09T19:30:01.486Z,221.80
2022-11-09T19:32:50.271Z,223.17
2022-11-09T19:35:35.760Z,224.60
2022-11-09T19:38:21.402Z,223.13
2022-11-09T19:41:08.144Z,234.80
2022-11-09T19:43:58.437Z,227.27
2022-11-09T19:46:44.779Z,230.77
2022-11-09T19:49:30.252Z,229.17
2022-11-09T19:52:15.569Z,238.50
2022-11-09T19:55:00.868Z,238.10
2022-11-09T19:57:46.029Z,231.97
2022-11-09T20:00:31.687Z,239.00
2022-11-09T20:03:16.983Z,232.70
2022-11-09T20:06:03.534Z,243.57
2022-11-09T20:08:49.049Z,245.00
2022-11-09T20:11:53.293Z,256.43
2022-11-09T20:14:38.585Z,251.37
2022-11-09T20:17:24.024Z,248.40
2022-11-09T20:20:10.554Z,242.10
2022-11-09T20:22:56.306Z,231.17
2022-11-09T20:25:41.694Z,241.83
2022-11-09T20:28:27.074Z,233.83
2022-11-09T20:31:16.064Z,231.17
2022-11-09T20:34:02.439Z,232.70
2022-11-09T20:36:48.162Z,232.83
2022-11-09T20:39:33.710Z,239.93
2022-11-09T20:42:19.490Z,233.07
2022-11-09T20:45:05.291Z,233.07
2022-11-09T20:48:07.563Z,229.17
2022-11-09T20:50:57.111Z,234.13
2022-11-09T20:53:42.545Z,232.73
2022-11-09T20:56:28.118Z,229.77
2022-11-09T20:59:13.321Z,236.40
2022-11-09T21:01:58.746Z,234.37
2022-11-09T21:04:44.142Z,247.03
2022-11-09T21:07:29.523Z,250.53
2022-11-09T21:10:14.934Z,250.97
2022-11-09T21:13:00.383Z,245.73
2022-11-09T21:15:45.785Z,242.63
2022-11-09T21:18:31.155Z,242.33
2022-11-09T21:21:20.120Z,238.43
2022-11-09T21:24:27.656Z,236.13
2022-11-09T21:27:47.995Z,230.57
2022-11-09T21:30:34.158Z,241.07
2022-11-09T21:33:19.537Z,234.27
2022-11-09T21:36:13.713Z,234.10
2022-11-09T21:38:59.090Z,237.00
2022-11-09T21:41:44.639Z,231.47
2022-11-09T21:44:31.907Z,241.97
2022-11-09T21:47:18.267Z,244.73
2022-11-09T21:50:07.027Z,250.13
2022-11-09T21:52:56.751Z,255.93
2022-11-09T21:55:41.956Z,255.60
2022-11-09T21:58:27.360Z,269.43
2022-11-09T22:01:12.868Z,255.00
2022-11-09T22:03:58.996Z,271.07
2022-11-09T22:06:44.841Z,263.37
2022-11-09T22:09:50.453Z,272.20
2022-11-09T22:12:56.694Z,270.30
2022-11-09T22:16:00.829Z,271.20
2022-11-09T22:19:04.785Z,264.10
2022-11-09T22:21:50.461Z,260.10
2022-11-09T22:24:35.835Z,251.27
2022-11-09T22:27:21.072Z,241.40
2022-11-09T22:30:07.797Z,247.97
2022-11-09T22:32:53.764Z,246.67
2022-11-09T22:35:39.130Z,238.23
2022-11-09T22:38:24.571Z,234.27
2022-11-09T22:41:15.440Z,245.23
2022-11-09T22:44:00.801Z,240.67
2022-11-09T22:46:46.012Z,232.50
2022-11-09T22:49:31.443Z,236.33
2022-11-09T22:52:18.332Z,231.73
2022-11-09T22:55:03.818Z,240.37
2022-11-09T22:57:49.100Z,236.03
2022-11-09T23:00:34.399Z,241.90
2022-11-09T23:03:21.698Z,243.47
2022-11-09T23:06:14.413Z,228.37
2022-11-09T23:08:59.747Z,237.80
2022-11-09T23:11:45.065Z,237.10
2022-11-09T23:14:49.716Z,227.13
2022-11-09T23:17:55.037Z,227.67
2022-11-09T23:20:42.023Z,232.90
2022-11-09T23:23:27.212Z,231.07
2022-11-09T23:26:13.257Z,220.27
2022-11-09T23:28:59.172Z,215.77
2022-11-09T23:31:44.754Z,220.93
2022-11-09T23:34:30.229Z,221.30
2022-11-09T23:37:15.619Z,216.63
2022-11-09T23:40:01.606Z,213.87
2022-11-09T23:42:46.881Z,222.47
2022-11-09T23:45:34.742Z,215.80
2022-11-09T23:48:20.556Z,217.33
2022-11-09T23:51:07.525Z,216.80
2022-11-09T23:53:52.821Z,209.87
2022-11-09T23:56:38.261Z,213.70
2022-11-09T23:59:23.624Z,207.43
